Time;durP1;ratioP1;P1;durP2;ratioP2;P2;SDS_P1;SDS_P2;PMS_P1;PMS_P2;Temp;Humidity;BMP_temperature;BMP_pressure;BME280_temperature;BME280_humidity;BME280_pressure;Samples;Min_cycle;Max_cycle;Signal;HPM_P1;HPM_P2
2022/02/17 00:00:43;;;;;;;13.63;3.58;;;14.80;65.90;;;;;;5015692;28;20061;-73
2022/02/17 00:03:10;;;;;;;18.52;3.70;;;14.80;66.10;;;;;;5016116;28;20075;-73
2022/02/17 00:05:37;;;;;;;14.48;4.45;;;14.80;65.70;;;;;;5013073;28;20129;-73
2022/02/17 00:08:04;;;;;;;16.73;3.67;;;14.70;65.60;;;;;;5016562;28;20128;-72
2022/02/17 00:10:30;;;;;;;10.45;3.30;;;14.70;65.60;;;;;;4998563;28;20485;-72
2022/02/17 00:12:57;;;;;;;14.50;3.63;;;14.70;65.40;;;;;;5016058;28;20125;-72
2022/02/17 00:15:27;;;;;;;15.90;4.20;;;14.70;65.60;;;;;;4998770;28;20443;-73
2022/02/17 00:17:53;;;;;;;17.45;3.83;;;14.70;65.40;;;;;;5015857;28;20107;-73
2022/02/17 00:20:19;;;;;;;19.38;4.53;;;14.70;65.30;;;;;;5015985;28;20049;-75
2022/02/17 00:22:45;;;;;;;17.27;3.75;;;14.70;65.30;;;;;;5015317;28;20046;-72
2022/02/17 00:25:11;;;;;;;12.55;4.07;;;14.70;65.30;;;;;;5015392;28;20049;-73
2022/02/17 00:27:38;;;;;;;11.20;3.55;;;14.60;65.20;;;;;;5015486;28;20061;-73
2022/02/17 00:30:07;;;;;;;12.13;4.07;;;14.60;65.20;;;;;;5015573;28;20046;-72
2022/02/17 00:32:34;;;;;;;12.15;3.42;;;14.60;65.00;;;;;;5015615;28;20049;-73
2022/02/17 00:35:00;;;;;;;11.73;2.85;;;14.70;65.30;;;;;;5015414;28;20133;-74
2022/02/17 00:37:25;;;;;;;12.40;2.72;;;14.60;65.00;;;;;;5015306;28;20444;-73
2022/02/17 00:39:51;;;;;;;15.10;3.72;;;14.60;64.70;;;;;;4981834;28;20044;-71
2022/02/17 00:42:17;;;;;;;9.93;3.20;;;14.60;64.90;;;;;;5015171;28;20081;-72
2022/02/17 00:44:43;;;;;;;12.73;3.03;;;14.60;64.90;;;;;;4998379;28;20350;-72
2022/02/17 00:47:11;;;;;;;11.85;3.05;;;14.60;64.80;;;;;;5015498;28;20463;-72
2022/02/17 00:49:37;;;;;;;11.27;2.90;;;14.60;64.90;;;;;;4997836;28;20128;-72
2022/02/17 00:52:04;;;;;;;12.10;3.28;;;14.60;64.80;;;;;;4998161;28;20112;-72
2022/02/17 00:54:29;;;;;;;11.25;2.92;;;14.60;64.70;;;;;;5015007;28;20458;-73
2022/02/17 00:56:55;;;;;;;11.93;3.00;;;14.60;64.70;;;;;;5015603;28;20058;-73
2022/02/17 00:59:21;;;;;;;13.50;3.03;;;14.60;64.40;;;;;;5015276;28;20092;-72
2022/02/17 01:01:48;;;;;;;13.40;3.35;;;14.50;64.40;;;;;;4998419;28;20439;-73
2022/02/17 01:04:17;;;;;;;13.88;3.50;;;14.50;64.20;;;;;;4997905;28;20124;-73
2022/02/17 01:06:44;;;;;;;13.68;3.63;;;14.60;64.30;;;;;;5015194;28;20475;-73
2022/02/17 01:09:11;;;;;;;9.73;2.80;;;14.50;64.10;;;;;;5014855;28;20111;-72
2022/02/17 01:11:37;;;;;;;13.10;3.33;;;14.50;64.00;;;;;;4997776;28;20061;-72
2022/02/17 01:14:03;;;;;;;17.50;4.47;;;14.50;64.10;;;;;;5014843;28;20045;-72
2022/02/17 01:16:29;;;;;;;15.50;3.58;;;14.50;63.80;;;;;;5015169;28;20057;-73
2022/02/17 01:18:55;;;;;;;14.20;3.88;;;14.50;63.60;;;;;;5015011;28;20104;-72
2022/02/17 01:21:21;;;;;;;11.52;2.90;;;14.40;63.90;;;;;;4997932;28;20057;-72
2022/02/17 01:23:47;;;;;;;14.10;3.15;;;14.40;63.60;;;;;;5014657;28;20060;-72
2022/02/17 01:26:14;;;;;;;14.85;3.15;;;14.40;63.60;;;;;;5015114;28;20049;-72
2022/02/17 01:28:40;;;;;;;17.95;4.00;;;14.40;63.60;;;;;;4981725;28;20049;-72
2022/02/17 01:31:05;;;;;;;15.32;4.05;;;14.40;63.70;;;;;;5015043;28;20061;-72
2022/02/17 01:33:31;;;;;;;15.25;3.33;;;14.40;63.80;;;;;;4997710;28;20042;-72
2022/02/17 01:35:57;;;;;;;10.38;3.50;;;14.30;63.60;;;;;;5015078;28;20061;-72
2022/02/17 01:38:22;;;;;;;18.05;4.38;;;14.40;64.00;;;;;;4999594;28;20042;-72
2022/02/17 01:40:50;;;;;;;21.65;5.50;;;14.40;63.90;;;;;;5018755;28;20080;-72
2022/02/17 01:43:17;;;;;;;14.63;4.20;;;14.40;63.80;;;;;;5018928;28;20058;-74
2022/02/17 01:45:44;;;;;;;14.70;3.88;;;14.40;63.60;;;;;;5018645;28;20060;-72
2022/02/17 01:48:10;;;;;;;15.50;3.90;;;14.40;63.80;;;;;;5019101;28;20053;-72
2022/02/17 01:50:41;;;;;;;19.75;4.63;;;14.40;63.60;;;;;;5001054;28;20207;-72
2022/02/17 01:53:11;;;;;;;15.88;4.30;;;14.40;63.00;;;;;;5018620;28;20050;-71
2022/02/17 01:55:38;;;;;;;17.75;4.50;;;14.40;63.20;;;;;;5019833;28;20054;-72
2022/02/17 01:58:04;;;;;;;12.55;4.22;;;14.40;63.00;;;;;;5037946;28;20053;-72
2022/02/17 02:00:31;;;;;;;19.08;4.25;;;14.40;63.10;;;;;;5036937;28;20139;-72
2022/02/17 02:02:57;;;;;;;18.23;4.22;;;14.40;63.00;;;;;;5035195;28;20049;-73
2022/02/17 02:05:22;;;;;;;20.00;4.18;;;14.40;62.90;;;;;;5037967;28;20052;-71
2022/02/17 02:07:48;;;;;;;17.42;3.92;;;14.40;62.80;;;;;;5020578;28;20115;-73
2022/02/17 02:10:14;;;;;;;17.38;5.03;;;14.40;63.00;;;;;;5037506;28;20045;-72
2022/02/17 02:12:39;;;;;;;22.65;4.70;;;14.30;62.70;;;;;;5020634;28;20061;-73
2022/02/17 02:15:06;;;;;;;16.52;5.35;;;14.30;62.70;;;;;;5037767;28;20045;-72
2022/02/17 02:17:33;;;;;;;16.92;4.47;;;14.30;62.90;;;;;;5037850;28;20114;-71
2022/02/17 02:20:06;;;;;;;19.52;4.95;;;14.30;63.00;;;;;;5037468;28;20350;-72
2022/02/17 02:22:32;;;;;;;20.08;4.85;;;14.20;62.90;;;;;;5020041;28;20119;-72
2022/02/17 02:25:00;;;;;;;22.70;5.68;;;14.20;62.90;;;;;;5037415;28;20100;-72
2022/02/17 02:27:30;;;;;;;17.63;4.50;;;14.20;63.00;;;;;;5037830;28;20331;-71
2022/02/17 02:29:56;;;;;;;18.00;5.13;;;14.20;62.80;;;;;;5019917;28;20053;-72
2022/02/17 02:32:22;;;;;;;18.38;4.93;;;14.20;62.90;;;;;;5019832;28;20192;-71
2022/02/17 02:34:47;;;;;;;16.35;4.43;;;14.20;63.00;;;;;;5037848;28;20472;-71
2022/02/17 02:37:13;;;;;;;22.55;4.75;;;14.20;63.10;;;;;;5037582;28;20128;-73
2022/02/17 02:39:39;;;;;;;18.38;5.10;;;14.20;62.90;;;;;;5037346;28;20053;-72
2022/02/17 02:42:06;;;;;;;18.45;4.65;;;14.20;62.90;;;;;;5019480;28;20054;-71
2022/02/17 02:44:32;;;;;;;17.83;5.15;;;14.20;62.90;;;;;;5037188;28;20045;-72
2022/02/17 02:46:58;;;;;;;23.58;5.15;;;14.10;62.70;;;;;;5037923;28;20428;-72
2022/02/17 02:49:24;;;;;;;17.80;5.00;;;14.20;62.80;;;;;;5037015;28;20041;-71
2022/02/17 02:51:50;;;;;;;16.75;5.18;;;14.10;62.50;;;;;;5036969;28;20355;-72
2022/02/17 02:54:16;;;;;;;15.75;4.22;;;14.10;62.60;;;;;;5037019;28;20365;-73
2022/02/17 02:56:42;;;;;;;17.77;4.47;;;14.10;62.50;;;;;;5036684;28;20136;-72
2022/02/17 02:59:08;;;;;;;14.20;3.45;;;14.10;62.30;;;;;;5036943;28;20403;-72
2022/02/17 03:01:34;;;;;;;17.48;4.30;;;14.10;62.50;;;;;;5037031;28;20067;-71
2022/02/17 03:04:00;;;;;;;19.48;4.97;;;14.10;62.10;;;;;;5037413;28;20124;-72
2022/02/17 03:06:30;;;;;;;16.77;4.60;;;14.10;62.80;;;;;;5036841;28;20060;-72
2022/02/17 03:08:56;;;;;;;14.40;3.65;;;14.10;62.10;;;;;;5018991;28;20045;-72
2022/02/17 03:11:22;;;;;;;16.92;4.43;;;14.10;62.00;;;;;;5037485;28;20048;-73
2022/02/17 03:13:48;;;;;;;18.95;4.63;;;14.10;61.90;;;;;;5036679;28;20132;-72
2022/02/17 03:16:14;;;;;;;18.33;4.55;;;14.00;61.90;;;;;;5019513;28;20045;-72
2022/02/17 03:18:40;;;;;;;16.92;4.38;;;14.10;61.80;;;;;;5036953;28;20045;-72
2022/02/17 03:21:05;;;;;;;15.45;4.38;;;14.00;61.70;;;;;;5036320;28;20110;-73
2022/02/17 03:23:32;;;;;;;18.98;5.43;;;14.00;61.60;;;;;;5019078;28;20157;-72
2022/02/17 03:26:00;;;;;;;18.83;4.50;;;14.00;61.60;;;;;;5036584;28;20102;-74
2022/02/17 03:28:25;;;;;;;19.73;4.43;;;14.00;61.80;;;;;;5028317;28;20037;-73
2022/02/17 03:30:52;;;;;;;17.60;4.43;;;14.00;61.40;;;;;;5019512;28;20890;-72
2022/02/17 03:33:17;;;;;;;15.27;4.40;;;14.00;61.80;;;;;;5035789;28;20481;-73
2022/02/17 03:35:43;;;;;;;14.57;4.90;;;14.00;61.40;;;;;;5036264;28;20049;-74
2022/02/17 03:38:09;;;;;;;19.65;5.40;;;13.90;61.50;;;;;;5036172;28;20055;-74
2022/02/17 03:40:36;;;;;;;17.98;5.43;;;13.90;61.50;;;;;;5035861;28;20452;-73
2022/02/17 03:43:01;;;;;;;18.88;4.28;;;13.90;61.70;;;;;;5036255;28;20146;-72
2022/02/17 03:45:27;;;;;;;18.58;4.60;;;14.00;61.70;;;;;;5036046;28;20443;-71
2022/02/17 03:47:53;;;;;;;17.50;4.47;;;14.00;61.60;;;;;;5036132;28;20323;-72
2022/02/17 03:50:19;;;;;;;20.38;5.38;;;14.00;61.40;;;;;;5035713;28;20446;-71
2022/02/17 03:52:44;;;;;;;20.60;4.60;;;14.00;61.50;;;;;;5019017;28;20049;-71
2022/02/17 03:55:10;;;;;;;19.38;4.75;;;13.90;61.10;;;;;;5018251;28;20100;-74
2022/02/17 03:57:36;;;;;;;18.83;4.35;;;13.90;61.10;;;;;;5035458;28;20063;-73
2022/02/17 04:00:04;;;;;;;18.05;5.25;;;13.90;61.90;;;;;;5035066;28;20500;-71
2022/02/17 04:02:29;;;;;;;18.85;4.68;;;13.90;61.30;;;;;;5036377;28;20045;-72
2022/02/17 04:04:55;;;;;;;16.83;5.03;;;13.90;61.30;;;;;;5035216;28;20064;-72
2022/02/17 04:07:21;;;;;;;19.27;5.05;;;13.90;61.30;;;;;;5035736;28;20087;-72
2022/02/17 04:09:46;;;;;;;15.95;5.18;;;13.90;61.30;;;;;;5035471;28;20048;-72
2022/02/17 04:12:14;;;;;;;20.40;4.70;;;13.90;61.30;;;;;;5036193;28;20045;-72
2022/02/17 04:14:39;;;;;;;20.17;4.93;;;13.90;61.40;;;;;;5035428;28;20064;-72
2022/02/17 04:17:05;;;;;;;19.02;5.05;;;13.90;61.40;;;;;;5017958;28;20049;-73
2022/02/17 04:19:32;;;;;;;19.98;5.00;;;13.80;61.10;;;;;;5035515;28;20335;-72
2022/02/17 04:21:58;;;;;;;19.25;4.72;;;13.90;61.30;;;;;;5035430;28;20118;-72
2022/02/17 04:24:24;;;;;;;18.77;4.57;;;13.90;61.20;;;;;;5018195;28;20049;-72
2022/02/17 04:26:50;;;;;;;16.23;4.43;;;13.80;61.20;;;;;;5035594;28;20362;-71
2022/02/17 04:29:16;;;;;;;17.50;4.95;;;13.80;61.00;;;;;;5035125;28;20400;-71
2022/02/17 04:31:41;;;;;;;18.63;4.85;;;13.80;61.10;;;;;;5035716;28;20060;-72
2022/02/17 04:34:07;;;;;;;17.77;5.10;;;13.70;60.80;;;;;;5035658;28;20038;-72
2022/02/17 04:36:33;;;;;;;20.38;5.22;;;13.70;61.10;;;;;;5034855;28;20049;-72
2022/02/17 04:38:59;;;;;;;14.48;4.43;;;13.80;61.00;;;;;;5001947;28;20045;-71
2022/02/17 04:44:09;;;;;;;;;;;13.70;61.00;;;;;;5035195;28;20057;-71
2022/02/17 04:46:35;;;;;;;19.33;4.97;;;13.70;60.20;;;;;;5035539;28;20007;-72
2022/02/17 04:49:00;;;;;;;18.92;4.65;;;13.70;61.20;;;;;;5004197;28;20129;-73
2022/02/17 04:51:26;;;;;;;21.42;4.95;;;13.80;61.20;;;;;;5034036;28;20068;-73
2022/02/17 04:53:52;;;;;;;15.48;4.63;;;13.90;61.00;;;;;;5033753;28;20540;-76
2022/02/17 04:56:17;;;;;;;18.63;5.50;;;13.90;60.30;;;;;;5034177;28;20054;-76
2022/02/17 04:58:43;;;;;;;23.45;4.75;;;14.00;58.80;;;;;;5034752;28;20056;-72
2022/02/17 05:01:09;;;;;;;17.00;4.75;;;14.00;58.80;;;;;;5035608;28;20049;-70
2022/02/17 05:03:34;;;;;;;24.25;5.05;;;13.90;59.00;;;;;;5034909;28;20055;-79
2022/02/17 05:06:02;;;;;;;22.05;5.10;;;13.90;59.10;;;;;;5017489;28;20053;-75
2022/02/17 05:08:29;;;;;;;15.18;4.10;;;14.00;59.60;;;;;;5017424;28;20374;-72
2022/02/17 05:10:55;;;;;;;15.20;4.07;;;14.00;59.40;;;;;;5034502;28;20053;-74
2022/02/17 05:13:20;;;;;;;13.45;3.50;;;14.10;59.30;;;;;;5038880;28;20049;-70
2022/02/17 05:15:46;;;;;;;11.13;3.45;;;14.30;59.20;;;;;;5021664;28;20049;-75
2022/02/17 05:18:12;;;;;;;14.98;3.38;;;14.60;59.10;;;;;;5005345;28;20083;-75
2022/02/17 05:20:38;;;;;;;11.38;3.28;;;14.80;59.00;;;;;;5038456;28;20335;-77
2022/02/17 05:23:05;;;;;;;20.10;3.85;;;15.00;58.80;;;;;;5038461;28;20050;-76
2022/02/17 05:25:31;;;;;;;13.60;3.47;;;15.20;58.50;;;;;;5038410;28;20053;-72
2022/02/17 05:27:57;;;;;;;13.75;3.80;;;15.40;58.60;;;;;;5038643;28;20049;-71
2022/02/17 05:30:22;;;;;;;15.13;3.97;;;15.50;58.70;;;;;;5020638;28;20049;-73
2022/02/17 05:32:48;;;;;;;13.40;3.47;;;15.60;58.70;;;;;;5021435;28;20053;-78
2022/02/17 05:35:14;;;;;;;13.50;4.05;;;15.60;58.70;;;;;;5004675;28;20069;-73
2022/02/17 05:37:40;;;;;;;13.00;3.50;;;15.60;59.30;;;;;;5038577;28;20054;-75
2022/02/17 05:40:09;;;;;;;14.02;3.80;;;15.70;59.80;;;;;;5037989;28;20064;-74
2022/02/17 05:42:35;;;;;;;14.43;3.25;;;15.70;59.40;;;;;;5020746;28;20128;-72
2022/02/17 05:45:02;;;;;;;22.83;4.15;;;15.80;59.90;;;;;;5038126;28;20389;-77
2022/02/17 05:47:27;;;;;;;11.02;3.20;;;15.30;55.80;;;;;;5037411;28;20064;-73
2022/02/17 05:49:53;;;;;;;17.67;4.03;;;14.90;59.30;;;;;;5037774;28;20361;-77
2022/02/17 05:52:19;;;;;;;17.80;3.85;;;15.10;61.40;;;;;;5049292;28;20175;-73
2022/02/17 05:54:45;;;;;;;18.58;4.35;;;15.30;61.70;;;;;;5005739;28;20075;-75
2022/02/17 05:57:10;;;;;;;12.38;3.50;;;15.50;61.60;;;;;;5034743;28;20053;-77
2022/02/17 05:59:40;;;;;;;14.55;3.80;;;15.60;61.40;;;;;;5040192;28;20052;-76
2022/02/17 06:02:07;;;;;;;14.90;3.92;;;15.80;61.40;;;;;;5040654;28;20454;-74
2022/02/17 06:04:32;;;;;;;15.48;3.72;;;15.90;61.20;;;;;;5049158;28;20073;-74
2022/02/17 06:06:58;;;;;;;16.55;3.70;;;16.00;61.10;;;;;;5037895;28;20516;-74
2022/02/17 06:09:24;;;;;;;13.70;3.85;;;16.10;60.90;;;;;;5037383;28;20257;-75
2022/02/17 06:11:49;;;;;;;18.70;3.75;;;16.20;61.10;;;;;;5037642;28;20469;-75
2022/02/17 06:14:15;;;;;;;13.70;4.13;;;16.30;61.10;;;;;;5037034;28;20466;-79
2022/02/17 06:16:41;;;;;;;15.40;3.50;;;16.40;61.30;;;;;;5040879;28;20481;-73
2022/02/17 06:19:07;;;;;;;14.23;3.55;;;16.40;61.00;;;;;;5040032;28;20140;-74
2022/02/17 06:21:33;;;;;;;13.40;3.78;;;16.40;61.10;;;;;;5037701;28;20450;-76
2022/02/17 06:23:59;;;;;;;18.60;3.70;;;16.50;61.20;;;;;;5019342;28;20080;-75
2022/02/17 06:26:24;;;;;;;15.00;3.13;;;16.60;61.40;;;;;;5037402;28;20055;-75
2022/02/17 06:28:50;;;;;;;15.75;3.90;;;16.60;61.40;;;;;;5036610;28;20409;-77
2022/02/17 06:31:18;;;;;;;16.50;3.88;;;16.60;61.20;;;;;;5020252;28;20049;-77
2022/02/17 06:33:44;;;;;;;12.18;3.88;;;16.60;61.30;;;;;;5037107;28;20041;-74
2022/02/17 06:36:15;;;;;;;16.98;3.78;;;16.60;61.50;;;;;;5037331;28;20053;-76
2022/02/17 06:38:41;;;;;;;13.93;3.75;;;16.60;61.70;;;;;;5020091;28;20041;-72
2022/02/17 06:41:08;;;;;;;15.52;4.07;;;16.60;61.40;;;;;;5019134;28;20056;-75
2022/02/17 06:43:36;;;;;;;11.77;3.63;;;16.60;61.30;;;;;;5035431;28;20095;-75
2022/02/17 06:46:03;;;;;;;14.65;3.28;;;16.60;61.50;;;;;;5036733;28;20127;-74
2022/02/17 06:48:29;;;;;;;9.35;2.90;;;16.60;61.50;;;;;;5019224;28;20041;-75
2022/02/17 06:50:54;;;;;;;13.30;3.05;;;16.60;61.20;;;;;;5019648;28;20465;-75
2022/02/17 06:53:20;;;;;;;14.98;3.47;;;16.60;61.20;;;;;;5036869;28;20466;-72
2022/02/17 06:55:46;;;;;;;9.40;2.75;;;16.60;61.20;;;;;;5019254;28;20061;-75
2022/02/17 06:58:12;;;;;;;13.13;4.00;;;16.60;61.30;;;;;;5036462;28;20045;-73
2022/02/17 07:00:38;;;;;;;12.25;2.85;;;16.60;61.40;;;;;;5019499;28;20058;-72
2022/02/17 07:03:06;;;;;;;12.10;3.22;;;16.60;61.40;;;;;;5019357;28;20433;-75
2022/02/17 07:05:33;;;;;;;17.90;3.83;;;16.70;61.30;;;;;;5019522;28;20369;-73
2022/02/17 07:07:59;;;;;;;11.95;3.15;;;16.70;61.20;;;;;;5019315;28;20049;-73
2022/02/17 07:13:10;;;;;;;15.90;3.75;;;16.70;61.50;;;;;;5036979;28;20444;-75
2022/02/17 08:03:48;;;;;;;11.68;3.17;;;16.40;59.30;;;;;;4852091;29;20362;-78
2022/02/17 08:06:13;;;;;;;16.42;4.10;;;16.50;59.00;;;;;;4849651;29;20041;-80
2022/02/17 08:08:41;;;;;;;13.25;3.55;;;16.70;58.30;;;;;;4862335;29;20470;-74
2022/02/17 08:11:07;;;;;;;14.52;3.13;;;16.70;57.20;;;;;;4862736;29;20130;-76
2022/02/17 08:13:33;;;;;;;9.95;2.67;;;16.70;56.70;;;;;;4876603;29;20114;-75
2022/02/17 08:15:58;;;;;;;14.25;3.50;;;16.70;56.50;;;;;;4865847;29;20048;-77
2022/02/17 08:18:24;;;;;;;11.57;3.15;;;16.70;56.80;;;;;;4875372;29;20128;-75
2022/02/17 08:20:50;;;;;;;10.80;2.72;;;16.80;56.80;;;;;;4871850;29;21167;-76
2022/02/17 08:23:16;;;;;;;10.55;3.15;;;16.80;56.80;;;;;;4852385;29;20485;-75
2022/02/17 08:25:42;;;;;;;9.85;3.30;;;16.90;56.70;;;;;;4875712;29;20052;-76
2022/02/17 08:28:08;;;;;;;12.25;3.13;;;16.90;56.90;;;;;;4857023;29;20055;-76
2022/02/17 08:30:37;;;;;;;12.07;2.97;;;16.90;57.10;;;;;;4861696;29;20064;-77
2022/02/17 08:33:04;;;;;;;14.57;3.20;;;17.00;57.10;;;;;;4862102;29;20084;-75
2022/02/17 08:35:30;;;;;;;13.60;3.35;;;17.00;57.30;;;;;;4861705;29;20060;-75
2022/02/17 08:37:56;;;;;;;13.48;2.85;;;17.00;57.20;;;;;;4860190;29;20045;-75
2022/02/17 08:40:23;;;;;;;14.43;2.95;;;17.10;57.10;;;;;;4862589;29;20053;-75
2022/02/17 08:42:49;;;;;;;10.32;3.47;;;17.10;57.20;;;;;;4860690;29;20049;-76
2022/02/17 08:45:15;;;;;;;12.80;3.53;;;17.10;57.10;;;;;;4859006;29;20049;-75
2022/02/17 08:47:41;;;;;;;8.52;2.75;;;17.10;57.20;;;;;;4863288;29;20049;-78
2022/02/17 08:50:09;;;;;;;11.13;3.47;;;17.10;57.10;;;;;;4851516;29;20100;-78
2022/02/17 08:52:38;;;;;;;10.00;3.03;;;17.10;57.60;;;;;;4877441;29;20053;-77
2022/02/17 08:55:06;;;;;;;13.55;3.42;;;17.10;56.80;;;;;;4851101;29;20462;-77
2022/02/17 08:57:32;;;;;;;19.38;3.53;;;17.00;56.20;;;;;;4871447;29;20419;-77
2022/02/17 08:59:57;;;;;;;13.50;3.08;;;16.90;54.00;;;;;;4874213;29;20045;-76
2022/02/17 09:02:23;;;;;;;11.32;3.22;;;16.90;56.10;;;;;;4865474;29;20374;-77
2022/02/17 09:04:49;;;;;;;11.75;3.13;;;16.90;56.20;;;;;;4860672;29;20144;-77
2022/02/17 09:07:15;;;;;;;11.93;3.40;;;16.90;55.90;;;;;;4868593;29;20419;-77
2022/02/17 09:09:41;;;;;;;15.05;3.25;;;16.90;56.30;;;;;;4869707;29;20076;-79
2022/02/17 09:12:08;;;;;;;11.27;2.70;;;16.90;55.90;;;;;;4875137;29;20052;-79
2022/02/17 09:14:34;;;;;;;13.68;3.35;;;16.90;54.70;;;;;;4862678;29;20118;-78
2022/02/17 09:16:59;;;;;;;11.73;3.20;;;16.80;54.90;;;;;;4862712;29;20081;-78
2022/02/17 09:19:25;;;;;;;12.30;2.95;;;16.80;55.30;;;;;;4846009;29;20132;-76
2022/02/17 09:21:51;;;;;;;15.27;3.60;;;16.70;55.10;;;;;;4862386;29;20120;-78
2022/02/17 09:24:17;;;;;;;13.80;3.78;;;16.80;54.90;;;;;;4862114;29;20451;-78
2022/02/17 09:26:45;;;;;;;13.40;3.33;;;16.80;55.40;;;;;;4861320;29;20053;-77
2022/02/17 09:29:11;;;;;;;11.82;3.10;;;16.80;54.60;;;;;;4846092;29;20049;-75
2022/02/17 09:31:37;;;;;;;13.27;3.05;;;16.80;54.00;;;;;;4861526;29;20057;-76
2022/02/17 09:34:03;;;;;;;12.68;3.22;;;16.80;56.00;;;;;;4862089;29;20053;-78
2022/02/17 09:36:29;;;;;;;17.80;4.35;;;16.80;56.50;;;;;;4862038;29;20489;-78
2022/02/17 09:38:56;;;;;;;26.42;3.15;;;16.90;56.50;;;;;;4860949;29;20045;-76
2022/02/17 09:41:22;;;;;;;17.27;3.25;;;16.90;56.60;;;;;;4861549;29;20045;-78
2022/02/17 09:43:50;;;;;;;22.00;3.90;;;16.70;55.20;;;;;;4861855;29;20419;-76
2022/02/17 09:46:22;;;;;;;14.75;3.03;;;16.80;56.30;;;;;;4860377;29;20098;-78
2022/02/17 09:49:01;;;;;;;11.40;3.13;;;16.70;56.30;;;;;;4868739;29;20352;-77
2022/02/17 09:51:32;;;;;;;11.20;3.13;;;16.80;55.90;;;;;;4860751;29;20057;-76
2022/02/17 09:54:00;;;;;;;18.58;3.55;;;16.80;56.00;;;;;;4877196;29;20113;-75
2022/02/17 09:56:26;;;;;;;12.95;3.13;;;16.80;56.00;;;;;;4866635;29;20109;-75
2022/02/17 09:58:53;;;;;;;15.40;3.58;;;16.80;56.10;;;;;;4866508;29;20454;-78
2022/02/17 10:01:28;;;;;;;22.65;4.00;;;16.80;55.90;;;;;;4875534;29;20049;-76
2022/02/17 10:04:15;;;;;;;21.17;3.67;;;16.80;56.00;;;;;;4867611;29;20513;-77
2022/02/17 10:06:48;;;;;;;18.95;3.30;;;16.80;55.40;;;;;;4875989;29;20094;-77
2022/02/17 10:09:15;;;;;;;14.52;3.63;;;16.80;55.60;;;;;;4874805;29;20109;-76
2022/02/17 10:11:42;;;;;;;16.30;3.65;;;16.80;56.10;;;;;;4868802;29;20535;-73
2022/02/17 10:14:14;;;;;;;13.35;3.55;;;16.70;55.70;;;;;;4880281;29;20057;-74
2022/02/17 10:17:04;;;;;;;14.65;4.07;;;16.70;55.30;;;;;;4870522;29;20149;-75
2022/02/17 10:19:37;;;;;;;18.38;3.65;;;16.70;55.30;;;;;;4870178;29;20081;-76
2022/02/17 10:22:17;;;;;;;14.93;3.85;;;16.60;56.00;;;;;;4865900;29;20055;-74
2022/02/17 10:24:51;;;;;;;15.82;3.80;;;16.60;54.70;;;;;;4870824;29;20064;-75
2022/02/17 10:27:22;;;;;;;11.88;3.17;;;16.60;55.80;;;;;;4871941;29;20057;-75
2022/02/17 10:30:01;;;;;;;12.98;3.65;;;16.60;55.80;;;;;;4879005;29;20049;-75
2022/02/17 10:32:27;;;;;;;16.77;3.63;;;16.60;55.30;;;;;;4855940;29;20049;-75
2022/02/17 10:35:12;;;;;;;12.65;3.28;;;16.60;55.70;;;;;;4875028;29;20076;-73
2022/02/17 10:37:59;;;;;;;16.50;3.67;;;16.60;56.30;;;;;;4877490;29;20091;-76
2022/02/17 10:40:33;;;;;;;19.13;3.83;;;16.60;54.70;;;;;;4855249;29;20100;-75
2022/02/17 10:43:03;;;;;;;13.65;3.40;;;16.60;54.90;;;;;;4873858;29;20038;-75
2022/02/17 10:45:29;;;;;;;15.85;3.25;;;16.60;54.80;;;;;;4871862;29;20065;-77
2022/02/17 10:48:09;;;;;;;9.82;3.20;;;16.60;54.10;;;;;;4867104;29;20432;-76
2022/02/17 10:50:35;;;;;;;14.02;3.80;;;16.60;53.90;;;;;;4876862;29;20080;-77
2022/02/17 10:53:16;;;;;;;10.63;3.15;;;16.60;54.00;;;;;;4871207;29;20542;-76
2022/02/17 10:55:59;;;;;;;15.40;3.83;;;16.50;53.80;;;;;;4856419;29;20359;-80
2022/02/17 10:58:38;;;;;;;12.48;3.50;;;16.50;52.10;;;;;;4857776;29;20434;-77
2022/02/17 11:01:06;;;;;;;11.45;3.35;;;16.60;53.80;;;;;;4873759;29;20127;-80
2022/02/17 11:03:35;;;;;;;16.27;3.30;;;16.50;54.40;;;;;;4867342;29;20053;-73
2022/02/17 11:06:02;;;;;;;12.35;3.40;;;16.60;54.80;;;;;;4863979;29;20057;-74
2022/02/17 11:08:28;;;;;;;11.70;4.22;;;16.60;53.70;;;;;;4877410;29;20061;-74
2022/02/17 11:10:56;;;;;;;14.40;3.95;;;16.60;53.00;;;;;;4872136;29;20044;-74
2022/02/17 11:13:24;;;;;;;15.82;3.95;;;16.60;52.20;;;;;;4882149;29;20067;-75
2022/02/17 11:15:51;;;;;;;12.55;3.22;;;16.50;52.20;;;;;;4882649;29;20049;-78
2022/02/17 11:18:18;;;;;;;15.65;3.67;;;16.50;52.80;;;;;;4881642;29;20089;-77
2022/02/17 11:20:46;;;;;;;13.25;3.20;;;16.50;52.80;;;;;;4881522;29;20060;-76
2022/02/17 11:23:14;;;;;;;9.52;2.88;;;16.50;53.30;;;;;;4882646;29;20059;-76
2022/02/17 11:25:41;;;;;;;11.93;3.78;;;16.40;53.80;;;;;;4882130;29;20505;-75
2022/02/17 11:28:12;;;;;;;9.10;2.72;;;16.40;53.90;;;;;;4882398;29;20052;-76
2022/02/17 11:30:39;;;;;;;11.18;3.40;;;16.40;54.10;;;;;;4882500;29;20101;-77
2022/02/17 11:33:28;;;;;;;16.80;4.78;;;16.40;54.60;;;;;;4873560;29;20118;-73
2022/02/17 11:36:09;;;;;;;12.25;3.13;;;16.40;54.70;;;;;;4863694;29;20049;-75
2022/02/17 11:38:37;;;;;;;19.77;4.00;;;16.30;54.90;;;;;;4860868;29;20117;-78
2022/02/17 11:41:17;;;;;;;11.15;3.05;;;16.30;55.20;;;;;;4864579;29;20152;-78
2022/02/17 11:43:49;;;;;;;9.45;2.72;;;16.30;55.80;;;;;;4862675;29;20102;-77
2022/02/17 11:46:43;;;;;;;12.48;2.80;;;16.20;55.30;;;;;;4862342;29;20053;-78
2022/02/17 11:49:35;;;;;;;;;;;16.20;54.80;;;;;;4868812;29;20047;-78
2022/02/17 11:52:12;;;;;;;12.30;2.65;;;16.20;55.30;;;;;;4850503;29;19989;-77
2022/02/17 11:54:38;;;;;;;9.90;2.30;;;16.20;55.90;;;;;;4871830;29;20446;-79
2022/02/17 11:57:23;;;;;;;10.57;3.03;;;16.20;56.20;;;;;;4877607;29;20049;-81
2022/02/17 11:59:48;;;;;;;12.80;3.40;;;16.20;57.20;;;;;;4863686;29;20045;-76
2022/02/17 12:02:41;;;;;;;8.35;2.63;;;16.20;57.50;;;;;;4859359;29;20373;-80
2022/02/17 12:05:17;;;;;;;12.65;2.97;;;16.30;57.30;;;;;;4856130;29;20485;-82
2022/02/17 12:07:44;;;;;;;12.25;3.55;;;16.30;57.60;;;;;;4850560;29;20053;-79
2022/02/17 12:10:32;;;;;;;13.85;2.88;;;16.30;57.80;;;;;;4862859;29;20071;-79
2022/02/17 12:12:59;;;;;;;16.77;3.13;;;16.30;57.90;;;;;;4874971;29;20076;-74
2022/02/17 12:15:25;;;;;;;14.70;2.72;;;16.20;54.70;;;;;;4858840;29;20052;-76
2022/02/17 12:17:50;;;;;;;12.88;2.70;;;16.00;57.40;;;;;;4864969;29;20064;-76
2022/02/17 12:20:42;;;;;;;12.15;2.83;;;16.10;58.30;;;;;;4877336;29;20041;-77
2022/02/17 12:23:08;;;;;;;14.80;2.83;;;16.20;58.50;;;;;;4867909;29;20148;-77
2022/02/17 12:25:39;;;;;;;12.20;3.40;;;16.30;58.60;;;;;;4867498;29;20171;-76
2022/02/17 12:28:07;;;;;;;12.05;3.42;;;16.30;58.10;;;;;;4877867;29;20425;-76
2022/02/17 12:30:46;;;;;;;13.05;3.25;;;16.30;58.30;;;;;;4866880;29;20057;-73
2022/02/17 12:33:16;;;;;;;13.32;2.83;;;16.30;58.00;;;;;;4870048;29;20535;-73
2022/02/17 12:36:00;;;;;;;8.63;2.80;;;16.30;58.40;;;;;;4862546;29;20133;-74
2022/02/17 12:38:34;;;;;;;11.20;2.92;;;16.30;58.70;;;;;;4862844;29;20049;-76
2022/02/17 12:41:09;;;;;;;10.75;2.50;;;16.40;59.10;;;;;;4861958;29;20516;-77
2022/02/17 12:43:38;;;;;;;14.18;3.05;;;16.40;58.90;;;;;;4862627;29;20117;-74
2022/02/17 12:46:08;;;;;;;11.20;3.08;;;16.40;58.70;;;;;;4862613;29;20133;-76
2022/02/17 12:48:37;;;;;;;11.18;3.08;;;16.30;59.10;;;;;;4862094;29;20069;-77
2022/02/17 12:51:03;;;;;;;13.02;2.97;;;16.30;59.70;;;;;;4862108;29;20368;-76
2022/02/17 12:53:47;;;;;;;14.48;2.55;;;16.30;59.30;;;;;;4861849;29;20064;-76
2022/02/17 12:56:35;;;;;;;15.63;3.15;;;16.40;58.90;;;;;;4863345;29;20053;-77
2022/02/17 12:59:15;;;;;;;9.73;2.65;;;16.40;58.40;;;;;;4862050;29;20144;-80
2022/02/17 13:01:55;;;;;;;12.90;2.22;;;16.30;58.50;;;;;;4862320;29;20049;-77
2022/02/17 13:04:21;;;;;;;15.23;2.95;;;16.30;58.60;;;;;;4861902;29;20069;-78
2022/02/17 13:06:47;;;;;;;12.45;2.85;;;16.20;59.10;;;;;;4861572;29;20062;-79
2022/02/17 13:09:18;;;;;;;10.52;2.50;;;16.20;58.90;;;;;;4862069;29;20054;-78
2022/02/17 13:11:51;;;;;;;8.77;2.50;;;16.10;58.50;;;;;;4862529;29;20041;-76
2022/02/17 13:14:17;;;;;;;10.40;2.63;;;16.10;58.70;;;;;;4861847;29;20113;-81
2022/02/17 13:16:51;;;;;;;11.80;2.30;;;16.10;59.20;;;;;;4846039;29;20068;-80
2022/02/17 13:19:39;;;;;;;11.60;3.00;;;16.10;58.80;;;;;;4859212;29;20065;-80
2022/02/17 13:22:06;;;;;;;11.07;3.00;;;16.00;58.10;;;;;;4861705;29;20059;-78
2022/02/17 13:24:32;;;;;;;12.25;2.92;;;16.00;58.90;;;;;;4861483;29;20057;-76
2022/02/17 13:27:19;;;;;;;10.27;3.08;;;16.00;58.50;;;;;;4861446;29;20057;-78
2022/02/17 13:30:01;;;;;;;10.05;3.28;;;16.00;58.40;;;;;;4862011;29;20049;-79
2022/02/17 13:32:29;;;;;;;10.68;2.55;;;15.90;58.40;;;;;;4862618;29;20541;-78
2022/02/17 13:35:05;;;;;;;11.25;2.70;;;15.90;58.20;;;;;;4863668;29;20060;-75
2022/02/17 13:37:47;;;;;;;15.00;2.75;;;15.80;58.10;;;;;;4857638;29;20062;-76